Time;durP1;ratioP1;P1;durP2;ratioP2;P2;SDS_P1;SDS_P2;PMS_P1;PMS_P2;Temp;Humidity;BMP_temperature;BMP_pressure;BME280_temperature;BME280_humidity;BME280_pressure;Samples;Min_cycle;Max_cycle;Signal;HPM_P1;HPM_P2
2023/02/12 01:06:24;1115782.00;3.72;1938.67;103919.00;0.35;180.34;;;;;8.60;1.00;;;;;;2278713;61;1390;-90
2023/02/12 01:22:21;881851.00;2.94;1524.27;8002.00;0.03;14.49;;;;;8.60;1.00;;;;;;2274680;61;966;-91
2023/02/12 01:24:48;546743.00;1.82;942.34;0.00;0.00;0.62;;;;;8.80;1.00;;;;;;2272921;61;1295;-90
2023/02/12 01:34:52;664376.00;2.21;1145.52;0.00;0.00;0.62;;;;;8.50;1.00;;;;;;2270758;61;1329;-90
2023/02/12 02:38:23;556936.00;1.86;959.92;0.00;0.00;0.62;;;;;8.60;1.00;;;;;;2278729;61;1027;-91
2023/02/12 03:41:19;866605.00;2.89;1497.54;17832.00;0.06;31.52;;;;;8.50;1.00;;;;;;2271258;61;1314;-91
2023/02/12 03:53:57;897144.00;2.99;1551.10;0.00;0.00;0.62;;;;;8.20;1.00;;;;;;2271106;61;996;-88
2023/02/12 04:26:51;1108720.00;3.70;1926.03;95474.00;0.32;165.76;;;;;8.50;1.00;;;;;;2282812;61;1357;-90
2023/02/12 05:02:10;745929.00;2.49;1286.98;39637.00;0.13;69.26;;;;;8.50;1.00;;;;;;2269901;61;1327;-90
2023/02/12 05:54:40;601706.00;2.01;1037.17;0.00;0.00;0.62;;;;;8.20;1.00;;;;;;2312936;40;3526;-87
2023/02/12 06:17:18;606876.00;2.02;1046.09;0.00;0.00;0.62;;;;;8.10;1.00;;;;;;2280281;55;3640;31
2023/02/12 06:32:12;578495.00;1.93;997.10;0.00;0.00;0.62;;;;;8.30;1.00;;;;;;2274524;61;1371;-92
2023/02/12 06:39:41;717330.00;2.39;1237.30;19704.00;0.07;34.76;;;;;8.10;1.00;;;;;;2278501;61;1315;-88
2023/02/12 07:42:55;549770.00;1.83;947.56;0.00;0.00;0.62;;;;;8.00;1.00;;;;;;559365;56;3089;-89
2023/02/12 08:05:29;534509.00;1.78;921.26;28591.00;0.10;50.14;;;;;8.80;1.00;;;;;;2278053;61;1374;-89
2023/02/12 08:20:35;603872.00;2.01;1040.91;0.00;0.00;0.62;;;;;9.20;1.00;;;;;;2270593;61;1159;-88
2023/02/12 08:33:03;783488.00;2.61;1352.34;35128.00;0.12;61.46;;;;;9.40;1.00;;;;;;2277860;61;1415;-87
2023/02/12 08:40:34;604977.00;2.02;1042.81;0.00;0.00;0.62;;;;;9.40;1.00;;;;;;2270617;61;1011;-90
2023/02/12 08:45:30;744745.00;2.48;1284.92;0.00;0.00;0.62;;;;;9.50;1.00;;;;;;2271002;61;1330;-89
2023/02/12 09:10:31;963163.00;3.21;1667.34;88832.00;0.30;154.29;;;;;9.90;1.00;;;;;;2278788;61;1944;-90
2023/02/12 09:12:58;460253.00;1.53;793.42;98656.00;0.33;171.25;;;;;9.80;1.00;;;;;;2276208;61;954;-88
2023/02/12 09:18:02;1348523.00;4.50;2361.19;106387.00;0.35;184.60;;;;;9.30;1.00;;;;;;2281953;61;1343;-90
2023/02/12 09:20:29;714393.00;2.38;1232.21;124784.00;0.42;216.33;;;;;9.40;1.00;;;;;;2280780;61;1233;-91
2023/02/12 09:22:58;600180.00;2.00;1034.53;76169.00;0.25;132.42;;;;;9.70;1.00;;;;;;2280779;61;1102;-88
2023/02/12 09:30:59;828480.00;2.76;1430.84;0.00;0.00;0.62;;;;;10.30;1.00;;;;;;2278338;61;1322;-90
2023/02/12 09:41:28;644037.00;2.15;1110.32;0.00;0.00;0.62;;;;;10.00;1.00;;;;;;2286232;61;1312;-89
2023/02/12 09:49:10;697481.00;2.32;1202.87;0.00;0.00;0.62;;;;;10.00;1.00;;;;;;2285090;60;1162;-89
2023/02/12 09:54:15;571148.00;1.90;984.43;0.00;0.00;0.62;;;;;10.40;1.00;;;;;;2284936;60;1415;-88
2023/02/12 09:59:21;745972.00;2.49;1287.05;0.00;0.00;0.62;;;;;10.30;1.00;;;;;;2285054;60;1399;-90
2023/02/12 10:01:48;399384.00;1.33;688.75;0.00;0.00;0.62;;;;;10.30;1.00;;;;;;2283574;60;921;-86
2023/02/12 11:35:17;1160371.00;3.87;2018.73;27485.00;0.09;48.23;;;;;12.60;1.00;;;;;;2274582;61;1357;-90
2023/02/12 11:48:02;872480.00;2.91;1507.84;0.00;0.00;0.62;;;;;10.30;1.00;;;;;;2270704;61;1883;-91
2023/02/12 11:58:39;804892.00;2.68;1389.66;0.00;0.00;0.62;;;;;10.90;1.00;;;;;;2274822;61;1335;-91
2023/02/12 12:01:40;420302.00;1.40;724.71;0.00;0.00;0.62;;;;;10.70;1.00;;;;;;2264480;61;997;-92
2023/02/12 13:30:24;1284019.00;4.28;2242.89;123646.00;0.41;214.37;;;;;10.30;1.00;;;;;;2274379;61;1076;-89
2023/02/12 13:37:57;766494.00;2.55;1322.75;97655.00;0.33;169.52;;;;;10.60;1.00;;;;;;2266246;61;1179;-87
2023/02/12 13:40:27;448155.00;1.49;772.61;102953.00;0.34;178.67;;;;;10.60;1.00;;;;;;2264118;61;1088;-86
2023/02/12 13:43:01;311421.00;1.04;537.55;99319.00;0.33;172.40;;;;;10.40;1.00;;;;;;2264154;61;1023;-87
2023/02/12 13:45:45;778941.00;2.60;1344.42;203059.00;0.68;351.19;;;;;10.20;1.00;;;;;;2264144;61;1308;-87
2023/02/12 13:48:33;603914.00;2.01;1040.98;93537.00;0.31;162.41;;;;;10.20;1.00;;;;;;2264178;61;1981;-86
2023/02/12 13:51:09;743460.00;2.48;1282.69;119223.00;0.40;206.74;;;;;10.00;1.00;;;;;;2264120;61;1126;-86
2023/02/12 13:53:50;903066.00;3.01;1561.51;97693.00;0.33;169.59;;;;;10.10;1.00;;;;;;2263999;61;1083;-87
2023/02/12 13:56:32;897224.00;2.99;1551.24;81344.00;0.27;141.36;;;;;10.20;1.00;;;;;;2264119;61;1449;-88
2023/02/12 13:59:00;1321319.00;4.40;2311.17;57651.00;0.19;100.42;;;;;10.40;1.00;;;;;;2264061;61;2181;-88
2023/02/12 14:01:45;416224.00;1.39;717.70;0.00;0.00;0.62;;;;;10.50;1.00;;;;;;2264066;61;1039;-86
2023/02/12 14:04:29;646205.00;2.15;1114.07;89656.00;0.30;155.71;;;;;10.60;1.00;;;;;;2263974;61;1416;-87
2023/02/12 14:07:01;315167.00;1.05;543.99;92285.00;0.31;160.25;;;;;10.80;1.00;;;;;;2264040;61;1978;-87
2023/02/12 14:09:34;121586688.00;405.29;72816232.00;0.00;0.00;0.62;;;;;10.60;1.00;;;;;;2264095;61;1140;-87
2023/02/12 14:12:04;127284.00;0.42;220.65;0.00;0.00;0.62;;;;;10.60;1.00;;;;;;2264022;61;1485;-88
2023/02/12 14:14:36;108207.00;0.36;187.74;0.00;0.00;0.62;;;;;10.60;1.00;;;;;;2264576;61;1300;-87
2023/02/12 14:17:50;86046.00;0.29;149.48;0.00;0.00;0.62;;;;;11.00;1.00;;;;;;2264709;61;1786;-86
2023/02/12 14:20:24;458036.00;1.53;789.61;96487.00;0.32;167.51;;;;;11.10;1.00;;;;;;2264736;61;951;-88
2023/02/12 14:23:22;478563.00;1.60;824.92;105971.00;0.35;183.88;;;;;10.80;1.00;;;;;;2264653;61;1645;-87
2023/02/12 14:26:00;394533.00;1.32;680.41;114151.00;0.38;197.99;;;;;10.70;1.00;;;;;;2264676;61;1373;-87
2023/02/12 14:28:47;57171.00;0.19;99.59;0.00;0.00;0.62;;;;;10.50;1.00;;;;;;2264686;61;1934;-87
2023/02/12 14:31:33;132839.00;0.44;230.22;0.00;0.00;0.62;;;;;10.90;1.00;;;;;;2264697;61;927;-85
2023/02/12 14:34:47;217299.00;0.72;375.70;0.00;0.00;0.62;;;;;11.30;1.00;;;;;;2264652;61;1000;-85
2023/02/12 14:37:36;294424.00;0.98;508.33;0.00;0.00;0.62;;;;;11.50;1.00;;;;;;2264610;61;1169;-86
2023/02/12 14:40:31;510833.00;1.70;880.48;100710.00;0.34;174.80;;;;;11.70;1.00;;;;;;2264635;61;1102;-84
2023/02/12 14:42:58;180662.00;0.60;312.63;0.00;0.00;0.62;;;;;11.70;1.00;;;;;;2264574;61;1719;-86
2023/02/12 14:45:31;141157.00;0.47;244.57;0.00;0.00;0.62;;;;;11.40;1.00;;;;;;2264609;61;1257;-86
2023/02/12 14:47:58;114596.00;0.38;198.76;0.00;0.00;0.62;;;;;11.40;1.00;;;;;;2264597;61;1986;-86
2023/02/12 14:50:35;220853.00;0.74;381.81;0.00;0.00;0.62;;;;;11.50;1.00;;;;;;2264594;61;917;-86
2023/02/12 14:53:23;112398.00;0.37;194.97;0.00;0.00;0.62;;;;;11.50;1.00;;;;;;2264546;61;1509;-86
2023/02/12 14:55:51;150451.00;0.50;260.58;0.00;0.00;0.62;;;;;11.40;1.00;;;;;;2264604;61;1372;-86
2023/02/12 14:58:21;162622.00;0.54;281.56;0.00;0.00;0.62;;;;;11.40;1.00;;;;;;2264570;61;983;-87
2023/02/12 15:00:52;166984.00;0.56;289.07;0.00;0.00;0.62;;;;;11.40;1.00;;;;;;2264556;61;1041;-86
2023/02/12 15:03:29;81184.00;0.27;141.08;0.00;0.00;0.62;;;;;11.60;1.00;;;;;;2264576;61;1062;-87
2023/02/12 15:06:07;175221.00;0.58;303.26;0.00;0.00;0.62;;;;;11.70;1.00;;;;;;2264448;61;1750;-87
2023/02/12 15:08:44;262603.00;0.88;453.62;0.00;0.00;0.62;;;;;11.50;1.00;;;;;;2264567;61;1932;-87
2023/02/12 15:11:33;116591.00;0.39;202.20;0.00;0.00;0.62;;;;;11.50;1.00;;;;;;2264391;61;1083;-86
2023/02/12 15:14:05;116262.00;0.39;201.63;0.00;0.00;0.62;;;;;11.50;1.00;;;;;;2264447;61;1936;-86
2023/02/12 15:16:45;51094.00;0.17;89.08;0.00;0.00;0.62;;;;;11.30;1.00;;;;;;2264496;61;1646;-86
2023/02/12 15:19:34;165132.00;0.55;285.88;0.00;0.00;0.62;;;;;11.40;1.00;;;;;;2264484;61;1007;-87
2023/02/12 15:22:01;153893.00;0.51;266.52;0.00;0.00;0.62;;;;;11.50;1.00;;;;;;2264424;61;1659;-86
2023/02/12 15:24:29;36267.00;0.12;63.43;0.00;0.00;0.62;;;;;11.70;1.00;;;;;;2264400;61;1337;-86
2023/02/12 15:26:59;120141.00;0.40;208.33;0.00;0.00;0.62;;;;;11.60;1.00;;;;;;2264438;61;1919;-86
2023/02/12 15:29:31;154238.00;0.51;267.11;0.00;0.00;0.62;;;;;10.90;1.00;;;;;;2264564;61;1078;-86
2023/02/12 15:32:01;114857.00;0.38;199.21;0.00;0.00;0.62;;;;;10.50;1.00;;;;;;2264489;61;1008;-88
2023/02/12 15:34:32;124833.00;0.42;216.42;0.00;0.00;0.62;;;;;10.30;1.00;;;;;;2264433;61;1452;-88
2023/02/12 15:37:01;93445.00;0.31;162.26;0.00;0.00;0.62;;;;;9.70;1.00;;;;;;2264152;61;1068;-88
2023/02/12 15:39:42;263919.00;0.88;455.89;0.00;0.00;0.62;;;;;9.80;1.00;;;;;;2264285;61;1005;-86
2023/02/12 15:42:24;185745.00;0.62;321.38;0.00;0.00;0.62;;;;;10.10;1.00;;;;;;2264170;61;1150;-87
2023/02/12 15:44:51;155930.00;0.52;270.03;0.00;0.00;0.62;;;;;10.20;1.00;;;;;;2264202;61;1593;-88
2023/02/12 15:47:23;92167.00;0.31;160.05;0.00;0.00;0.62;;;;;10.10;1.00;;;;;;2264157;61;1989;-85
2023/02/12 15:49:50;177446.00;0.59;307.09;0.00;0.00;0.62;;;;;10.00;1.00;;;;;;2264173;61;1191;-87
2023/02/12 15:52:20;188696.00;0.63;326.46;0.00;0.00;0.62;;;;;10.00;1.00;;;;;;2264324;61;1079;-88
2023/02/12 15:54:49;197238.00;0.66;341.17;0.00;0.00;0.62;;;;;10.00;1.00;;;;;;2264321;61;1755;-87
2023/02/12 15:57:22;115006.00;0.38;199.47;0.00;0.00;0.62;;;;;9.90;1.00;;;;;;2264436;61;965;-88
2023/02/12 15:59:51;189772.00;0.63;328.32;0.00;0.00;0.62;;;;;10.10;1.00;;;;;;2264424;61;1059;-85
2023/02/12 16:02:21;89445.00;0.30;155.35;0.00;0.00;0.62;;;;;10.20;1.00;;;;;;2264351;61;1090;-87
2023/02/12 16:04:48;134094.00;0.45;232.39;0.00;0.00;0.62;;;;;10.20;1.00;;;;;;2264365;61;1315;-88
2023/02/12 16:07:17;152963.00;0.51;264.91;0.00;0.00;0.62;;;;;9.70;1.00;;;;;;2264266;61;1911;-88
2023/02/12 16:09:46;149699.00;0.50;259.29;0.00;0.00;0.62;;;;;9.60;1.00;;;;;;2264354;61;1690;-87
2023/02/12 16:12:19;97576.00;0.33;169.39;0.00;0.00;0.62;;;;;9.80;1.00;;;;;;2264291;61;1573;-87
2023/02/12 16:14:49;150422.00;0.50;260.53;0.00;0.00;0.62;;;;;10.00;1.00;;;;;;2264377;61;1448;-86
2023/02/12 16:17:26;163690.00;0.55;283.40;0.00;0.00;0.62;;;;;10.00;1.00;;;;;;2264249;61;1087;-87
2023/02/12 16:19:58;254845.00;0.85;440.28;0.00;0.00;0.62;;;;;9.60;1.00;;;;;;2264337;61;1045;-88
2023/02/12 16:22:29;315867.00;1.05;545.19;0.00;0.00;0.62;;;;;9.60;1.00;;;;;;2264311;61;903;-87
2023/02/12 16:24:56;245683.00;0.82;424.53;0.00;0.00;0.62;;;;;9.50;1.00;;;;;;2264251;61;2173;-87
2023/02/12 16:27:27;183296.00;0.61;317.17;0.00;0.00;0.62;;;;;9.40;1.00;;;;;;2264311;61;2002;-88
2023/02/12 16:29:56;199012.00;0.66;344.22;0.00;0.00;0.62;;;;;9.40;1.00;;;;;;2264227;61;1616;-88
2023/02/12 16:32:34;219609.00;0.73;379.67;0.00;0.00;0.62;;;;;9.40;1.00;;;;;;2264270;61;1034;-88
2023/02/12 16:35:04;100747.00;0.34;174.86;0.00;0.00;0.62;;;;;9.40;1.00;;;;;;2264169;61;1562;-88
2023/02/12 16:37:44;121231.00;0.40;210.21;0.00;0.00;0.62;;;;;9.40;1.00;;;;;;2264153;61;1094;-87
2023/02/12 16:40:26;354496.00;1.18;611.59;39134.00;0.13;68.39;;;;;9.20;1.00;;;;;;2264242;61;2236;-86
2023/02/12 16:43:00;556625.00;1.86;959.38;66899.00;0.22;116.40;;;;;9.20;1.00;;;;;;2264280;61;1031;-87
2023/02/12 16:45:40;664678.00;2.22;1146.04;39454.00;0.13;68.94;;;;;9.20;1.00;;;;;;2264219;61;1734;-86
2023/02/12 16:48:22;838471.00;2.79;1448.30;164478.00;0.55;284.75;;;;;9.10;1.00;;;;;;2264222;61;1990;-88
2023/02/12 16:50:51;108194.00;0.36;187.71;0.00;0.00;0.62;;;;;9.20;1.00;;;;;;2264167;61;1027;-87
2023/02/12 16:53:41;72679.00;0.24;126.39;0.00;0.00;0.62;;;;;9.10;1.00;;;;;;2264240;61;1003;-86
2023/02/12 16:56:19;191565.00;0.64;331.40;0.00;0.00;0.62;;;;;8.80;1.00;;;;;;2264208;61;1395;-87
2023/02/12 16:58:49;171263.00;0.57;296.44;0.00;0.00;0.62;;;;;8.60;1.00;;;;;;2264225;61;1170;-88
2023/02/12 17:01:19;357271.00;1.19;616.36;0.00;0.00;0.62;;;;;8.50;1.00;;;;;;2264277;61;1114;-88
2023/02/12 17:03:49;288954.00;0.96;498.93;0.00;0.00;0.62;;;;;8.70;1.00;;;;;;2264257;61;1051;-88
2023/02/12 17:06:17;255343.00;0.85;441.14;0.00;0.00;0.62;;;;;8.80;1.00;;;;;;2264131;61;1362;-88
2023/02/12 17:08:45;278745.00;0.93;481.38;0.00;0.00;0.62;;;;;9.00;1.00;;;;;;2264202;61;1986;-87
2023/02/12 17:11:13;276558.00;0.92;477.62;41000.00;0.14;71.62;;;;;9.20;1.00;;;;;;2264269;61;1087;-87
2023/02/12 17:13:39;195946.00;0.65;338.95;0.00;0.00;0.62;;;;;9.50;1.00;;;;;;2264142;61;1127;-87
2023/02/12 17:16:08;232966.00;0.78;402.65;0.00;0.00;0.62;;;;;9.60;1.00;;;;;;2264196;61;1693;-87
2023/02/12 17:18:36;130593.00;0.44;226.35;0.00;0.00;0.62;;;;;9.70;1.00;;;;;;2264217;61;1083;-86
2023/02/12 17:21:07;264082.00;0.88;456.17;0.00;0.00;0.62;;;;;9.70;1.00;;;;;;2264122;61;1114;-87
2023/02/12 17:23:35;160229.00;0.53;277.43;0.00;0.00;0.62;;;;;9.60;1.00;;;;;;2264199;61;1059;-85
2023/02/12 17:26:02;281353.00;0.94;485.86;0.00;0.00;0.62;;;;;9.90;1.00;;;;;;2264135;61;1295;-87
2023/02/12 17:28:29;191728.00;0.64;331.68;0.00;0.00;0.62;;;;;10.10;1.00;;;;;;2264079;61;1987;-88
2023/02/12 17:30:56;107926.00;0.36;187.25;0.00;0.00;0.62;;;;;10.00;1.00;;;;;;2264131;61;1763;-87
2023/02/12 17:33:25;129159.00;0.43;223.88;0.00;0.00;0.62;;;;;10.00;1.00;;;;;;2264046;61;1098;-87
2023/02/12 17:35:52;124072.00;0.41;215.11;0.00;0.00;0.62;;;;;9.60;1.00;;;;;;2263971;61;1388;-87
2023/02/12 17:38:18;117297040.00;390.99;65371544.00;0.00;0.00;0.62;;;;;9.50;1.00;;;;;;2264152;61;983;-88
2023/02/12 17:40:45;101343.00;0.34;175.89;0.00;0.00;0.62;;;;;9.50;1.00;;;;;;2264159;61;1109;-86
2023/02/12 17:43:12;141060.00;0.47;244.40;0.00;0.00;0.62;;;;;9.50;1.00;;;;;;2264082;61;984;-87
2023/02/12 17:45:43;142136.00;0.47;246.25;0.00;0.00;0.62;;;;;9.30;1.00;;;;;;2264066;61;1386;-88
2023/02/12 17:48:10;255537.00;0.85;441.47;0.00;0.00;0.62;;;;;9.40;1.00;;;;;;2264249;61;1908;-86
2023/02/12 17:50:40;195455.00;0.65;338.10;0.00;0.00;0.62;;;;;9.10;1.00;;;;;;2264853;61;1007;-88
2023/02/12 17:53:08;138596.00;0.46;240.15;0.00;0.00;0.62;;;;;9.30;1.00;;;;;;2264677;61;1082;-86
2023/02/12 17:55:38;257649.00;0.86;445.11;0.00;0.00;0.62;;;;;9.50;1.00;;;;;;2264643;61;1445;-87
2023/02/12 17:58:05;162493.00;0.54;281.33;0.00;0.00;0.62;;;;;9.20;1.00;;;;;;2264635;61;1004;-87
2023/02/12 18:00:32;140966.00;0.47;244.24;0.00;0.00;0.62;;;;;9.30;1.00;;;;;;2264761;61;1009;-88
2023/02/12 18:02:59;163680.00;0.55;283.38;0.00;0.00;0.62;;;;;9.40;1.00;;;;;;2264601;61;1569;-87
2023/02/12 18:05:26;163255.00;0.54;282.65;0.00;0.00;0.62;;;;;9.60;1.00;;;;;;2264771;61;1357;-89
2023/02/12 18:07:55;65358.00;0.22;113.74;0.00;0.00;0.62;;;;;9.80;1.00;;;;;;2264754;61;1994;-87
2023/02/12 20:10:49;1143324.00;3.81;1988.08;0.00;0.00;0.62;;;;;7.10;1.00;;;;;;2274556;61;1006;-96
2023/02/12 21:22:23;957028.00;3.19;1656.51;0.00;0.00;0.62;;;;;6.10;1.00;;;;;;2514624;40;3906;31
2023/02/12 21:37:40;332798.00;1.11;574.30;0.00;0.00;0.62;;;;;6.00;1.00;;;;;;2425894;40;3235;31
2023/02/12 22:05:31;1052950.00;3.51;1826.48;0.00;0.00;0.62;;;;;5.50;1.00;;;;;;2523560;55;3497;31
2023/02/12 22:44:15;1517052.00;5.06;2675.25;102391.00;0.34;177.70;;;;;5.10;1.00;;;;;;2283112;61;955;-93
